createdAt,value
2023-11-25T00:00:56.939Z,99733.00
2023-11-25T00:03:23.740Z,99733.13
2023-11-25T00:05:50.695Z,99736.59
2023-11-25T00:08:17.594Z,99740.13
2023-11-25T00:10:44.465Z,99747.69
2023-11-25T00:13:11.051Z,99745.19
2023-11-25T00:15:38.395Z,99743.81
2023-11-25T00:18:05.012Z,99742.78
2023-11-25T00:20:31.562Z,99739.53
2023-11-25T00:22:58.098Z,99731.06
2023-11-25T00:25:24.672Z,99736.78
2023-11-25T00:27:51.453Z,99740.34
2023-11-25T00:30:17.954Z,99735.38
2023-11-25T00:32:44.590Z,99741.59
2023-11-25T00:35:11.255Z,99737.72
2023-11-25T00:37:38.533Z,99737.66
2023-11-25T00:40:05.841Z,99740.91
2023-11-25T00:42:32.457Z,99727.34
2023-11-25T00:44:59.128Z,99732.59
2023-11-25T00:47:25.773Z,99738.97
2023-11-25T00:49:52.394Z,99741.56
2023-11-25T00:52:18.988Z,99747.16
2023-11-25T00:54:45.603Z,99749.91
2023-11-25T00:57:12.201Z,99743.63
2023-11-25T00:59:38.675Z,99748.31
2023-11-25T01:02:05.266Z,99742.69
2023-11-25T01:04:31.853Z,99743.84
2023-11-25T01:06:58.408Z,99754.13
2023-11-25T01:09:25.119Z,99754.50
2023-11-25T01:11:51.622Z,99751.69
2023-11-25T01:14:18.221Z,99758.13
2023-11-25T01:16:44.837Z,99748.66
2023-11-25T01:19:11.494Z,99744.69
2023-11-25T01:21:38.122Z,99749.63
2023-11-25T01:24:04.922Z,99753.25
2023-11-25T01:26:31.461Z,99750.09
2023-11-25T01:28:58.105Z,99765.19
2023-11-25T01:31:24.691Z,99767.19
2023-11-25T01:33:51.198Z,99772.66
2023-11-25T01:36:17.791Z,99761.88
2023-11-25T01:38:44.298Z,99764.25
2023-11-25T01:41:11.262Z,99771.00
2023-11-25T01:43:37.831Z,99770.72
2023-11-25T01:46:05.829Z,99770.16
2023-11-25T01:48:32.450Z,99767.28
2023-11-25T01:51:00.441Z,99776.88
2023-11-25T01:53:28.229Z,99778.97
2023-11-25T01:55:55.369Z,99778.22
2023-11-25T01:58:21.949Z,99767.44
2023-11-25T02:00:49.968Z,99766.88
2023-11-25T02:03:17.547Z,99781.69
2023-11-25T02:05:44.784Z,99788.22
2023-11-25T02:08:11.493Z,99782.47
2023-11-25T02:10:38.000Z,99792.88
2023-11-25T02:13:04.662Z,99787.78
2023-11-25T02:15:31.387Z,99792.34
2023-11-25T02:17:58.039Z,99792.44
2023-11-25T02:20:40.648Z,99796.94
2023-11-25T02:23:16.735Z,99790.00
2023-11-25T02:25:50.835Z,99797.31
2023-11-25T02:28:18.195Z,99790.22
2023-11-25T02:30:44.730Z,99794.94
2023-11-25T02:33:11.358Z,99800.09
2023-11-25T02:35:37.921Z,99801.59
2023-11-25T02:38:04.471Z,99797.09
2023-11-25T02:40:31.012Z,99805.59
2023-11-25T02:42:57.599Z,99813.13
2023-11-25T02:45:24.871Z,99800.44
2023-11-25T02:47:52.256Z,99796.63
2023-11-25T02:50:19.535Z,99804.25
2023-11-25T02:52:46.453Z,99806.16
2023-11-25T02:55:13.209Z,99793.94
2023-11-25T02:57:40.716Z,99800.16
2023-11-25T03:00:08.103Z,99799.31
2023-11-25T03:02:34.769Z,99804.91
2023-11-25T03:05:01.375Z,99803.47
2023-11-25T03:07:28.071Z,99800.94
2023-11-25T03:09:54.649Z,99808.22
2023-11-25T03:12:21.147Z,99797.34
2023-11-25T03:14:47.629Z,99817.94
2023-11-25T03:17:14.209Z,99822.78
2023-11-25T03:19:41.049Z,99830.09
2023-11-25T03:22:07.659Z,99834.66
2023-11-25T03:24:34.194Z,99836.75
2023-11-25T03:27:00.695Z,99844.25
2023-11-25T03:29:27.250Z,99846.13
2023-11-25T03:31:53.844Z,99853.25
2023-11-25T03:34:20.438Z,99854.94
2023-11-25T03:36:47.032Z,99862.97
2023-11-25T03:39:13.717Z,99867.91
2023-11-25T03:41:40.688Z,99873.84
2023-11-25T03:44:07.293Z,99879.53
2023-11-25T03:46:33.961Z,99882.97
2023-11-25T03:49:00.530Z,99883.94
2023-11-25T03:51:27.090Z,99890.28
2023-11-25T03:53:53.613Z,99894.38
2023-11-25T03:56:20.184Z,99896.72
2023-11-25T03:58:46.782Z,99901.41
2023-11-25T04:01:13.319Z,99899.44
2023-11-25T04:03:39.908Z,99897.41
2023-11-25T04:06:06.787Z,99892.81
2023-11-25T04:08:33.343Z,99891.59
2023-11-25T04:11:00.841Z,99892.06
2023-11-25T04:13:27.318Z,99898.31
2023-11-25T04:15:53.858Z,99907.03
2023-11-25T04:18:20.456Z,99909.44
2023-11-25T04:20:47.011Z,99917.31
2023-11-25T04:23:14.011Z,99936.31
2023-11-25T04:25:40.585Z,99938.66
2023-11-25T04:28:07.253Z,99939.19
2023-11-25T04:30:33.840Z,99950.75
2023-11-25T04:33:00.650Z,99957.59
2023-11-25T04:35:27.342Z,99957.25
2023-11-25T04:37:53.944Z,99947.34
2023-11-25T04:40:20.491Z,99957.00
2023-11-25T04:42:47.094Z,99955.81
2023-11-25T04:45:13.671Z,99955.44
2023-11-25T04:47:40.344Z,99968.22
2023-11-25T04:50:07.364Z,99968.94
2023-11-25T04:52:33.926Z,99971.38
2023-11-25T04:55:00.546Z,99979.19
2023-11-25T04:57:27.130Z,99979.91
2023-11-25T04:59:53.680Z,99983.56
2023-11-25T05:02:20.355Z,100000.56
2023-11-25T05:04:47.463Z,99990.50
2023-11-25T05:07:14.022Z,100009.97
2023-11-25T05:09:40.542Z,100014.72
2023-11-25T05:12:07.517Z,100016.63
2023-11-25T05:14:34.560Z,100017.13
2023-11-25T05:17:01.278Z,100016.47
2023-11-25T05:19:27.947Z,100027.25
2023-11-25T05:21:54.501Z,100035.97
2023-11-25T05:24:21.041Z,100045.44
2023-11-25T05:26:47.604Z,100044.94
2023-11-25T05:29:14.102Z,100050.28
2023-11-25T05:31:40.609Z,100042.94
2023-11-25T05:34:07.215Z,100047.25
2023-11-25T05:36:33.900Z,100051.00
2023-11-25T05:39:00.842Z,100057.75
2023-11-25T05:41:28.284Z,100047.03
2023-11-25T05:44:01.010Z,100065.25
2023-11-25T05:46:27.620Z,100058.16
2023-11-25T05:48:54.393Z,100061.19
2023-11-25T05:51:21.632Z,100070.34
2023-11-25T05:53:48.439Z,100072.25
2023-11-25T05:56:14.996Z,100069.97
2023-11-25T05:58:41.567Z,100076.09
2023-11-25T06:01:08.216Z,100078.97
2023-11-25T06:03:34.862Z,100072.09
2023-11-25T06:06:01.815Z,100084.63
2023-11-25T06:08:28.293Z,100083.84
2023-11-25T06:10:57.305Z,100080.13
2023-11-25T06:13:23.933Z,100093.88
2023-11-25T06:15:50.517Z,100096.22
2023-11-25T06:18:17.165Z,100101.94
2023-11-25T06:20:43.807Z,100104.13
2023-11-25T06:23:10.328Z,100109.63
2023-11-25T06:25:36.923Z,100118.22
2023-11-25T06:28:03.703Z,100117.28
2023-11-25T06:30:30.296Z,100125.81
2023-11-25T06:32:56.905Z,100126.88
2023-11-25T06:35:23.419Z,100135.03
2023-11-25T06:37:50.183Z,100137.66
2023-11-25T06:40:16.875Z,100145.34
2023-11-25T06:42:43.565Z,100150.06
2023-11-25T06:45:10.319Z,100161.31
2023-11-25T06:47:36.903Z,100159.22
2023-11-25T06:50:03.685Z,100156.78
2023-11-25T06:52:30.239Z,100178.31
2023-11-25T06:54:56.884Z,100174.59
2023-11-25T06:57:23.520Z,100180.19
2023-11-25T06:59:50.072Z,100182.56
2023-11-25T07:02:16.742Z,100195.50
2023-11-25T07:04:43.462Z,100192.19
2023-11-25T07:07:10.079Z,100194.06
2023-11-25T07:09:36.770Z,100199.91
2023-11-25T07:12:03.583Z,100210.03
2023-11-25T07:14:30.144Z,100213.81
2023-11-25T07:16:56.674Z,100208.06
2023-11-25T07:19:23.265Z,100219.94
2023-11-25T07:21:49.980Z,100223.41
2023-11-25T07:24:16.503Z,100224.50
2023-11-25T07:26:43.000Z,100228.66
2023-11-25T07:29:09.593Z,100229.25
2023-11-25T07:31:36.696Z,100242.00
2023-11-25T07:34:03.963Z,100239.91
2023-11-25T07:36:30.587Z,100240.72
2023-11-25T07:38:57.153Z,100247.59
2023-11-25T07:41:23.641Z,100248.63
2023-11-25T07:43:50.180Z,100247.94
2023-11-25T07:46:16.819Z,100239.97
2023-11-25T07:48:43.358Z,100243.41
2023-11-25T07:51:09.926Z,100244.50
2023-11-25T07:53:36.475Z,100251.19
2023-11-25T07:56:03.204Z,100247.22
2023-11-25T07:58:29.861Z,100247.50
2023-11-25T08:00:56.497Z,100246.56
2023-11-25T08:03:23.179Z,100255.28
2023-11-25T08:05:49.770Z,100244.25
2023-11-25T08:08:16.341Z,100246.59
2023-11-25T08:10:42.978Z,100251.16
2023-11-25T08:13:09.618Z,100260.66
2023-11-25T08:15:36.146Z,100248.00
2023-11-25T08:18:02.948Z,100261.84
2023-11-25T08:20:29.589Z,100261.72
2023-11-25T08:22:56.210Z,100271.91
2023-11-25T08:25:22.858Z,100275.28
2023-11-25T08:27:51.005Z,100286.44
2023-11-25T08:30:17.581Z,100285.53
2023-11-25T08:32:44.955Z,100292.66
2023-11-25T08:35:13.034Z,100278.09
2023-11-25T08:37:40.682Z,100280.56
2023-11-25T08:40:12.131Z,100290.16
2023-11-25T08:42:38.634Z,100285.31
2023-11-25T08:45:05.691Z,100293.16
2023-11-25T08:47:32.326Z,100297.53
2023-11-25T08:49:59.006Z,100300.25
2023-11-25T08:52:25.631Z,100311.84
2023-11-25T08:54:52.164Z,100313.84
2023-11-25T08:57:18.748Z,100316.28
2023-11-25T08:59:45.869Z,100314.88
2023-11-25T09:02:12.554Z,100314.19
2023-11-25T09:04:42.130Z,100315.50
2023-11-25T09:07:08.733Z,100322.59
2023-11-25T09:09:35.329Z,100319.88
2023-11-25T09:12:02.016Z,100332.78
2023-11-25T09:14:28.568Z,100332.88
2023-11-25T09:16:55.151Z,100346.75
2023-11-25T09:19:21.749Z,100334.19
2023-11-25T09:21:48.314Z,100345.66
2023-11-25T09:24:14.865Z,100357.56
2023-11-25T09:26:41.563Z,100362.06
2023-11-25T09:29:08.075Z,100365.66
2023-11-25T09:31:34.700Z,100371.31
2023-11-25T09:34:01.339Z,100364.69
2023-11-25T09:36:27.828Z,100351.66
2023-11-25T09:38:54.486Z,100364.19
2023-11-25T09:41:21.120Z,100375.03
2023-11-25T09:43:47.768Z,100370.38
2023-11-25T09:46:15.001Z,100374.09
2023-11-25T09:48:41.641Z,100382.22
2023-11-25T09:51:08.933Z,100372.09
2023-11-25T09:53:38.330Z,100367.94
2023-11-25T09:56:07.282Z,100373.28
2023-11-25T09:58:36.256Z,100378.69
2023-11-25T10:01:04.020Z,100384.97
2023-11-25T10:03:35.057Z,100373.81
2023-11-25T10:06:02.758Z,100390.53
2023-11-25T10:08:29.870Z,100393.66
2023-11-25T10:11:07.334Z,100386.28
2023-11-25T10:13:40.236Z,100389.81
2023-11-25T10:16:08.003Z,100382.66
2023-11-25T10:18:37.123Z,100405.19
2023-11-25T10:21:05.220Z,100403.63
2023-11-25T10:23:31.866Z,100400.09
2023-11-25T10:25:58.680Z,100408.66
2023-11-25T10:28:27.442Z,100391.97
2023-11-25T10:30:57.378Z,100393.09
2023-11-25T10:33:24.585Z,100387.50
2023-11-25T10:35:52.117Z,100395.50
2023-11-25T10:38:19.254Z,100385.41
2023-11-25T10:40:46.704Z,100405.53
2023-11-25T10:43:13.345Z,100413.34
2023-11-25T10:45:40.016Z,100416.94
2023-11-25T10:48:09.002Z,100422.91
2023-11-25T10:50:35.663Z,100411.97
2023-11-25T10:53:05.649Z,100419.28
2023-11-25T10:55:33.558Z,100414.63
2023-11-25T10:58:00.390Z,100410.59
2023-11-25T11:00:30.235Z,100414.13
2023-11-25T11:02:59.283Z,100403.63
2023-11-25T11:05:42.540Z,100408.53
2023-11-25T11:08:16.246Z,100406.03
2023-11-25T11:10:59.699Z,100420.81
2023-11-25T11:13:42.883Z,100420.75
2023-11-25T11:16:27.907Z,100420.78
2023-11-25T11:18:57.623Z,100421.44
2023-11-25T11:21:33.022Z,100421.44
2023-11-25T11:24:01.271Z,100418.25
2023-11-25T11:26:46.629Z,100419.56
2023-11-25T11:29:27.884Z,100420.22
2023-11-25T11:32:07.510Z,100431.72
2023-11-25T11:34:35.949Z,100428.91
2023-11-25T11:37:03.657Z,100432.69
2023-11-25T11:39:52.140Z,100427.41
2023-11-25T11:42:25.980Z,100428.88
2023-11-25T11:45:06.466Z,100421.03
2023-11-25T11:47:33.311Z,100435.19
2023-11-25T11:50:00.258Z,100433.69
2023-11-25T11:52:27.042Z,100435.50
2023-11-25T11:54:53.674Z,100438.47
2023-11-25T11:57:20.342Z,100436.75
2023-11-25T12:00:06.179Z,100438.59
2023-11-25T12:02:33.833Z,100423.19
2023-11-25T12:05:02.000Z,100439.91
2023-11-25T12:07:29.007Z,100444.25
2023-11-25T12:09:56.589Z,100448.56
2023-11-25T12:12:23.732Z,100442.13
2023-11-25T12:14:52.222Z,100446.25
2023-11-25T12:17:20.601Z,100438.47
2023-11-25T12:19:47.414Z,100436.34
2023-11-25T12:22:15.729Z,100434.91
2023-11-25T12:24:43.429Z,100442.75
2023-11-25T12:27:14.073Z,100438.19
2023-11-25T12:29:40.698Z,100435.13
2023-11-25T12:32:07.693Z,100437.81
2023-11-25T12:34:34.574Z,100438.44
2023-11-25T12:37:01.551Z,100436.38
2023-11-25T12:39:28.533Z,100455.53
2023-11-25T12:41:55.289Z,100433.81
2023-11-25T12:44:22.065Z,100458.34
2023-11-25T12:47:05.227Z,100450.53
2023-11-25T12:49:32.052Z,100444.59
2023-11-25T12:51:58.633Z,100452.78
2023-11-25T12:54:25.790Z,100445.06
2023-11-25T12:56:54.235Z,100435.22
2023-11-25T12:59:27.954Z,100451.50
2023-11-25T13:02:02.933Z,100442.91
2023-11-25T13:04:30.185Z,100446.72
2023-11-25T13:06:56.895Z,100453.06
2023-11-25T13:09:25.984Z,100447.88
2023-11-25T13:11:52.598Z,100447.88
2023-11-25T13:14:19.411Z,100452.03
2023-11-25T13:16:46.194Z,100468.06
2023-11-25T13:19:12.922Z,100456.41
2023-11-25T13:21:39.835Z,100467.84
2023-11-25T13:24:06.757Z,100471.03
2023-11-25T13:26:33.768Z,100460.88
2023-11-25T13:29:01.267Z,100467.72
2023-11-25T13:31:28.519Z,100480.63
2023-11-25T13:33:56.184Z,100477.22
2023-11-25T13:36:23.737Z,100477.16
2023-11-25T13:38:50.851Z,100487.97
2023-11-25T13:41:17.512Z,100497.16
2023-11-25T13:43:44.240Z,100497.25
2023-11-25T13:46:10.901Z,100500.72
2023-11-25T13:48:37.572Z,100496.53
2023-11-25T13:51:04.216Z,100492.31
2023-11-25T13:53:30.909Z,100502.63
2023-11-25T13:55:57.587Z,100506.13
2023-11-25T13:58:24.377Z,100518.63
2023-11-25T14:00:51.182Z,100505.81
2023-11-25T14:03:19.423Z,100522.28
2023-11-25T14:05:46.179Z,100526.75
2023-11-25T14:08:13.951Z,100527.81
2023-11-25T14:10:40.709Z,100543.56
2023-11-25T14:13:07.475Z,100547.44
2023-11-25T14:15:34.358Z,100555.25
2023-11-25T14:18:01.622Z,100558.50
2023-11-25T14:20:29.844Z,100553.41
2023-11-25T14:22:56.521Z,100550.78
2023-11-25T14:25:23.678Z,100562.72
2023-11-25T14:27:50.800Z,100571.72
2023-11-25T14:30:18.135Z,100570.56
2023-11-25T14:32:45.720Z,100567.88
2023-11-25T14:35:12.353Z,100564.59
2023-11-25T14:37:39.809Z,100578.31
2023-11-25T14:40:07.609Z,100576.63
2023-11-25T14:42:35.291Z,100575.72
2023-11-25T14:45:02.223Z,100591.13
2023-11-25T14:47:29.134Z,100593.31
2023-11-25T14:49:56.045Z,100590.03
2023-11-25T14:52:22.807Z,100598.06
2023-11-25T14:54:49.681Z,100600.72
2023-11-25T14:57:16.476Z,100608.38
2023-11-25T14:59:43.444Z,100613.28
2023-11-25T15:02:10.522Z,100616.06
2023-11-25T15:04:37.288Z,100622.09
2023-11-25T15:07:04.126Z,100616.59
2023-11-25T15:09:30.788Z,100628.66
2023-11-25T15:11:57.577Z,100638.22
2023-11-25T15:14:24.391Z,100640.88
2023-11-25T15:16:52.360Z,100632.53
2023-11-25T15:19:19.477Z,100642.25
2023-11-25T15:21:46.506Z,100649.69
2023-11-25T15:24:13.413Z,100652.19
2023-11-25T15:26:43.745Z,100663.28
2023-11-25T15:29:11.597Z,100663.41
2023-11-25T15:34:05.216Z,100679.88
2023-11-25T15:36:31.908Z,100673.25
2023-11-25T15:38:58.755Z,100678.91
2023-11-25T15:41:25.474Z,100686.25
2023-11-25T15:43:52.332Z,100689.41
2023-11-25T15:46:19.102Z,100691.41
2023-11-25T15:48:45.791Z,100705.03
2023-11-25T15:51:12.601Z,100708.78
2023-11-25T15:53:39.289Z,100714.53
2023-11-25T15:56:07.811Z,100727.09
2023-11-25T15:58:34.835Z,100727.78
2023-11-25T16:01:01.632Z,100727.06
2023-11-25T16:03:28.419Z,100725.72
2023-11-25T16:05:55.110Z,100734.00
2023-11-25T16:08:21.855Z,100744.44
2023-11-25T16:10:48.560Z,100732.78
2023-11-25T16:13:15.307Z,100741.81
2023-11-25T16:15:41.988Z,100747.94
2023-11-25T16:18:08.731Z,100743.78
2023-11-25T16:20:35.390Z,100745.34
2023-11-25T16:23:02.241Z,100757.66
2023-11-25T16:25:28.970Z,100755.78
2023-11-25T16:27:55.900Z,100761.06
2023-11-25T16:30:22.651Z,100764.69
2023-11-25T16:32:50.007Z,100772.25
2023-11-25T16:35:17.161Z,100776.50
2023-11-25T16:37:44.963Z,100786.00
2023-11-25T16:40:13.038Z,100786.84
2023-11-25T16:42:39.785Z,100785.22
2023-11-25T16:45:07.122Z,100793.97
2023-11-25T16:47:34.711Z,100798.31
2023-11-25T16:50:03.143Z,100800.66
2023-11-25T16:52:30.136Z,100798.66
2023-11-25T16:54:56.942Z,100800.66
2023-11-25T16:57:23.840Z,100796.69
2023-11-25T16:59:50.584Z,100801.53
2023-11-25T17:02:17.587Z,100802.47
2023-11-25T17:04:44.614Z,100808.31
2023-11-25T17:07:11.441Z,100803.69
2023-11-25T17:09:38.091Z,100803.34
2023-11-25T17:12:05.293Z,100817.09
2023-11-25T17:14:31.904Z,100813.88
2023-11-25T17:16:58.836Z,100822.75
2023-11-25T17:19:25.622Z,100829.69
2023-11-25T17:21:52.395Z,100830.09
2023-11-25T17:24:19.108Z,100832.31
2023-11-25T17:26:45.699Z,100836.63
2023-11-25T17:29:12.419Z,100834.50
2023-11-25T17:31:39.413Z,100837.13
2023-11-25T17:34:06.215Z,100842.66
2023-11-25T17:36:32.856Z,100836.59
2023-11-25T17:39:00.345Z,100838.22
2023-11-25T17:41:26.958Z,100837.78
2023-11-25T17:43:53.906Z,100842.72
2023-11-25T17:46:20.924Z,100846.19
2023-11-25T17:48:47.630Z,100841.16
2023-11-25T17:51:14.404Z,100846.84
2023-11-25T17:53:41.214Z,100851.22
2023-11-25T17:56:08.701Z,100854.97
2023-11-25T17:58:35.499Z,100855.72
2023-11-25T18:01:02.232Z,100865.41
2023-11-25T18:03:28.865Z,100869.97
2023-11-25T18:05:55.505Z,100870.84
2023-11-25T18:08:22.199Z,100869.00
2023-11-25T18:10:49.041Z,100868.88
2023-11-25T18:13:15.930Z,100873.72
2023-11-25T18:15:42.596Z,100871.63
2023-11-25T18:18:09.436Z,100878.28
2023-11-25T18:20:36.124Z,100877.50
2023-11-25T18:23:02.780Z,100885.94
2023-11-25T18:25:29.518Z,100886.47
2023-11-25T18:27:56.336Z,100893.66
2023-11-25T18:30:23.268Z,100886.13
2023-11-25T18:32:50.074Z,100886.63
2023-11-25T18:35:16.976Z,100887.16
2023-11-25T18:37:43.698Z,100892.44
2023-11-25T18:40:10.714Z,100889.09
2023-11-25T18:42:37.404Z,100886.22
2023-11-25T18:45:05.119Z,100889.56
2023-11-25T18:47:31.923Z,100883.91
2023-11-25T18:49:58.961Z,100875.59
2023-11-25T18:52:25.739Z,100887.09
2023-11-25T18:54:52.414Z,100901.84
2023-11-25T18:57:19.107Z,100909.31
2023-11-25T18:59:46.791Z,100909.13
2023-11-25T19:02:13.624Z,100906.91
2023-11-25T19:04:41.319Z,100915.13
2023-11-25T19:07:08.212Z,100906.50
2023-11-25T19:09:34.968Z,100901.47
2023-11-25T19:12:01.672Z,100901.78
2023-11-25T19:14:28.381Z,100903.78
2023-11-25T19:16:55.225Z,100900.44
2023-11-25T19:19:21.932Z,100900.97
2023-11-25T19:21:48.816Z,100898.00
2023-11-25T19:24:15.665Z,100909.94
2023-11-25T19:26:42.397Z,100916.63
2023-11-25T19:29:09.364Z,100914.59
2023-11-25T19:31:37.648Z,100923.09
2023-11-25T19:34:04.355Z,100921.44
2023-11-25T19:36:34.264Z,100931.94
2023-11-25T19:39:00.951Z,100921.78
2023-11-25T19:41:27.751Z,100919.31
2023-11-25T19:43:54.571Z,100924.59
2023-11-25T19:46:23.938Z,100910.31
2023-11-25T19:48:51.501Z,100916.53
2023-11-25T19:51:20.208Z,100916.88
2023-11-25T19:53:50.797Z,100928.66
2023-11-25T19:56:20.176Z,100932.00
2023-11-25T19:58:47.145Z,100936.97
2023-11-25T20:01:16.616Z,100945.66
2023-11-25T20:03:46.302Z,100943.38
2023-11-25T20:06:14.641Z,100943.16
2023-11-25T20:08:41.615Z,100943.16
2023-11-25T20:11:09.436Z,100949.56
2023-11-25T20:13:36.611Z,100949.25
2023-11-25T20:16:03.465Z,100951.84
2023-11-25T20:18:31.280Z,100955.97
2023-11-25T20:20:57.940Z,100965.69
2023-11-25T20:23:25.103Z,100966.09
2023-11-25T20:25:53.102Z,100961.16
2023-11-25T20:28:19.916Z,100975.75
2023-11-25T20:30:47.654Z,100959.72
2023-11-25T20:33:14.844Z,100962.50
2023-11-25T20:35:42.955Z,100950.72
2023-11-25T20:38:11.495Z,100949.16
2023-11-25T20:40:40.140Z,100956.50
2023-11-25T20:43:07.648Z,100977.97
2023-11-25T20:45:38.354Z,100977.88
2023-11-25T20:48:05.812Z,100977.84
2023-11-25T20:50:32.738Z,100983.34
2023-11-25T20:52:59.522Z,100987.63
2023-11-25T20:55:26.252Z,100996.41
2023-11-25T20:57:52.949Z,101010.47
2023-11-25T21:00:19.884Z,101010.75
2023-11-25T21:02:46.614Z,101009.03
2023-11-25T21:05:13.570Z,101010.47
2023-11-25T21:07:43.334Z,101014.25
2023-11-25T21:10:10.929Z,101013.50
2023-11-25T21:12:37.632Z,101006.38
2023-11-25T21:15:04.649Z,100997.28
2023-11-25T21:17:31.423Z,101004.34
2023-11-25T21:19:58.330Z,101004.94
2023-11-25T21:22:25.205Z,101014.31
2023-11-25T21:24:51.893Z,101019.03
2023-11-25T21:27:18.713Z,101030.22
2023-11-25T21:29:45.378Z,101033.50
2023-11-25T21:32:12.236Z,101040.41
2023-11-25T21:34:39.044Z,101043.97
2023-11-25T21:37:05.910Z,101040.19
2023-11-25T21:39:32.772Z,101032.47
2023-11-25T21:41:59.548Z,101031.69
2023-11-25T21:44:26.388Z,101024.69
2023-11-25T21:46:53.465Z,101023.63
2023-11-25T21:49:20.089Z,101019.25
2023-11-25T21:51:46.733Z,101010.53
2023-11-25T21:54:13.351Z,101016.06
2023-11-25T21:56:40.042Z,101020.84
2023-11-25T21:59:06.693Z,101020.66
2023-11-25T22:01:33.479Z,101024.81
2023-11-25T22:04:00.288Z,101036.13
2023-11-25T22:06:27.369Z,101045.72
2023-11-25T22:08:54.644Z,101053.75
2023-11-25T22:11:21.337Z,101058.53
2023-11-25T22:13:48.473Z,101065.06
2023-11-25T22:16:15.036Z,101064.94
2023-11-25T22:18:41.660Z,101066.00
2023-11-25T22:21:08.308Z,101075.34
2023-11-25T22:23:34.837Z,101068.88
2023-11-25T22:26:01.418Z,101063.84
2023-11-25T22:28:27.941Z,101059.44
2023-11-25T22:30:54.535Z,101054.28
2023-11-25T22:33:21.092Z,101056.75
2023-11-25T22:35:53.458Z,101057.59
2023-11-25T22:38:25.142Z,101054.94
2023-11-25T22:40:51.687Z,101059.75
2023-11-25T22:43:18.298Z,101067.56
2023-11-25T22:45:44.875Z,101062.22
2023-11-25T22:48:11.404Z,101062.94
2023-11-25T22:50:37.935Z,101055.78
2023-11-25T22:53:04.607Z,101061.00
2023-11-25T22:55:31.310Z,101070.63
2023-11-25T22:57:57.810Z,101067.28
2023-11-25T23:00:24.330Z,101060.25
2023-11-25T23:02:50.965Z,101061.09
2023-11-25T23:05:17.574Z,101051.69
2023-11-25T23:07:44.156Z,101063.59
2023-11-25T23:10:10.711Z,101055.13
2023-11-25T23:12:37.259Z,101063.06
2023-11-25T23:15:04.102Z,101062.63
2023-11-25T23:17:30.794Z,101072.38
2023-11-25T23:19:57.477Z,101068.28
2023-11-25T23:22:23.997Z,101068.50
2023-11-25T23:24:50.548Z,101059.16
2023-11-25T23:27:17.105Z,101070.56
2023-11-25T23:29:43.674Z,101069.72
2023-11-25T23:32:10.406Z,101075.47
2023-11-25T23:34:37.601Z,101072.28
2023-11-25T23:37:04.188Z,101069.78
2023-11-25T23:39:30.745Z,101068.31
2023-11-25T23:41:57.222Z,101067.44
2023-11-25T23:44:23.805Z,101069.38
2023-11-25T23:46:50.401Z,101066.03
2023-11-25T23:49:17.013Z,101067.81
2023-11-25T23:51:43.563Z,101067.81
2023-11-25T23:54:10.202Z,101063.63
2023-11-25T23:56:36.770Z,101067.22
2023-11-25T23:59:03.280Z,101069.75
